Impacts METAR Board
IDs:

KATL - Atlanta/Hartsfield I, GA, US

Updated at: 1900 UTC 08 Feb 2023
Potential Impact None Slight Moderate High
Time 08/07Z 08/08Z 08/09Z 08/10Z 08/11Z 08/12Z 08/13Z 08/14Z 08/15Z 08/16Z 08/17Z 08/18Z 08/19Z
Temp57 57 56 57 57 56 56 57 58 63 64 67 69
Dewpt42 42 42 43 43 43 44 44 45 48 50 52 52
Altim30.26 30.25 30.25 30.25 30.25 30.26 30.28 30.29 30.29 30.30 30.29 30.27 30.24
VIS10 10 10 10 10 10 9 8 8 10 10 10 10
CIG70 60 65 65 60 60 80 60 60 31 32 65 200
CoverOVCOVCOVCOVCOVCOVCOVCOVCBKNOVCOVCBKNBKN
FltCatVFRVFRVFRVFRVFRVFRVFRVFRVFRVFRVFRVFRVFR
WX--------------------------
WDir140000000100140190190180150
WSpd4 0 0 0 0 0 3 3 4 10 7 8 6
WGst-- -- -- -- -- -- -- -- -- -- -- -- --
Raw hourly METARs
KATL 080652Z 14004KT 10SM BKN070 BKN090 OVC250 14/06 A3026 RMK AO2 SLP245 T01390056
KATL 080752Z 00000KT 10SM BKN060 BKN095 OVC250 14/06 A3025 RMK AO2 SLP241 T01390056
KATL 080852Z 00000KT 10SM BKN065 OVC250 13/06 A3025 RMK AO2 SLP242 T01330056 55005
KATL 080952Z 00000KT 10SM SCT030 BKN065 OVC250 14/06 A3025 RMK AO2 SLP240 T01390061
KATL 081052Z 00000KT 10SM FEW030 BKN060 OVC090 14/06 A3025 RMK AO2 SLP242 T01390061
KATL 081152Z 00000KT 10SM FEW025 BKN060 OVC100 13/06 A3026 RMK AO2 SLP244 T01330061 10144 20128 53001
KATL 081252Z VRB03KT 9SM FEW024 BKN080 OVC100 13/07 A3028 RMK AO2 SLP250 BINOVC T01330067
KATL 081352Z 10003KT 8SM FEW024 BKN060 OVC095 14/07 A3029 RMK AO2 SLP255 BINOVC T01390067
KATL 081452Z 14004KT 8SM FEW026 BKN060 BKN100 BKN200 14/07 A3029 RMK AO2 SLP255 MDT CU SE-SW-W T01440072 50009
KATL 081552Z 19010KT 10SM BKN031 BKN070 BKN100 OVC200 17/09 A3030 RMK AO2 SLP258 ACC SE MDT CU W T01720089
KATL 081652Z 19007KT 10SM BKN032 BKN070 BKN110 OVC200 18/10 A3029 RMK AO2 SLP255 MDT CU N-NE SE-SW T01780100
KATL 081752Z 18008KT 10SM SCT033 BKN065 BKN120 BKN200 19/11 A3027 RMK AO2 SLP246 T01940111 10194 20128 58007
KATL 081852Z 15006KT 10SM FEW038 SCT070 BKN200 BKN250 21/11 A3024 RMK AO2 SLP238 MDT CU SW W T02060111



Page loaded:  19:37 UTC  |   11:37 AM Pacific  |   12:37 PM Mountain  |   01:37 PM Central  |   02:37 PM Eastern

 

ADVISORIES

FORECASTS

FORECASTS

OBSERVATIONS

USER TOOLS

ABOUT US